KCEF

Westover ARB / Metropolitan Airport

Springfield/Chicopee, Massachusetts, USA
METAR KCEF 230056Z 00000KT 10SM FEW040 SCT100 03/00 A3017 RMK AO2A SLP225 T00331002
Observed Flight Rules
Oct-23 @ 00:56 UTC (29 minutes ago) Visual Flight Rules
Visibility Clouds
10 miles
  • Few at 4,000' AGL
  • Scattered at 10,000' AGL
Temperatures Readings
Current 3°C / 37°F
Dewpoint -0°C / 32°F
Humidity 81%
Altimeter 30.17" Hg
Pressure 1022.5 hPa
Elevation 75
METAR KCEF 230056Z 00000KT 10SM FEW040 SCT100 03/00 A3017 RMK AO2A SLP225 T00331002
Observed Flight Rules
Oct-23 @ 00:56 UTC
(29 minutes ago)
VFR
Clouds
  • Few at 4,000' AGL
  • Scattered at 10,000' AGL
Temperature Dewpoint
3°C / 37°F -0°C / 32°F
Humidity Altimeter Pressure
81% 30.17" Hg 1022.5 hPa